Time;durP1;ratioP1;P1;durP2;ratioP2;P2;SDS_P1;SDS_P2;PMS_P1;PMS_P2;Temp;Humidity;BMP_temperature;BMP_pressure;BME280_temperature;BME280_humidity;BME280_pressure;Samples;Min_cycle;Max_cycle;Signal;HPM_P1;HPM_P2
2022/06/23 00:01:06;;;;;;;;;;;;;;;12.49;78.04;100323.52;84781;1327;22890;-73
2022/06/23 00:03:18;;;;;;;;;;;;;;;12.47;77.90;100322.36;84766;1326;23124;-73
2022/06/23 00:05:23;;;;;;;;;;;;;;;12.46;78.10;100322.05;84764;1328;22577;-73
2022/06/23 00:07:28;;;;;;;;;;;;;;;12.48;78.30;100323.92;84744;1319;25498;-73
2022/06/23 00:09:39;;;;;;;;;;;;;;;12.50;78.45;100322.73;84782;1326;22707;-73
2022/06/23 00:11:48;;;;;;;;;;;;;;;12.52;78.34;100323.02;84774;1327;22905;-72
2022/06/23 00:13:51;;;;;;;;;;;;;;;12.54;78.48;100321.15;84760;1327;25939;-73
2022/06/23 00:15:55;;;;;;;;;;;;;;;12.54;78.21;100320.63;84746;1327;23892;-73
2022/06/23 00:18:00;;;;;;;;;;;;;;;12.53;78.36;100320.52;84738;1322;22581;-73
2022/06/23 00:20:05;;;;;;;;;;;;;;;12.54;78.57;100317.14;84761;1326;22604;-73
2022/06/23 00:22:09;;;;;;;;;;;;;;;12.56;78.52;100319.15;84768;1327;22921;-73
2022/06/23 00:24:15;;;;;;;;;;;;;;;12.56;78.65;100322.98;84755;1326;24368;-73
2022/06/23 00:26:20;;;;;;;;;;;;;;;12.58;78.85;100323.27;84758;1326;22791;-72
2022/06/23 00:28:25;;;;;;;;;;;;;;;12.57;78.57;100322.95;84769;1327;22677;-73
2022/06/23 00:30:36;;;;;;;;;;;;;;;12.55;78.53;100327.08;84701;1329;22745;-72
2022/06/23 00:32:39;;;;;;;;;;;;;;;12.52;78.90;100325.47;84707;1330;25949;-73
2022/06/23 00:34:50;;;;;;;;;;;;;;;12.50;78.85;100329.22;84718;1326;22585;-73
2022/06/23 00:36:54;;;;;;;;;;;;;;;12.48;78.77;100333.02;84707;1326;22611;-72
2022/06/23 00:38:57;;;;;;;;;;;;;;;12.44;78.71;100335.12;84710;1330;25949;-72
2022/06/23 00:41:01;;;;;;;;;;;;;;;12.39;78.95;100337.73;84721;1327;22573;-72
2022/06/23 00:43:04;;;;;;;;;;;;;;;12.37;78.96;100338.73;84718;1324;22537;-72
2022/06/23 00:45:13;;;;;;;;;;;;;;;12.35;79.04;100343.02;84710;1326;22765;-72
2022/06/23 00:47:19;;;;;;;;;;;;;;;12.34;79.21;100343.95;84721;1326;22597;-71
2022/06/23 00:49:27;;;;;;;;;;;;;;;12.32;79.41;100344.55;84738;1326;22721;-72
2022/06/23 00:51:36;;;;;;;;;;;;;;;12.30;79.41;100343.79;84708;1326;22541;-73
2022/06/23 00:53:43;;;;;;;;;;;;;;;12.28;79.63;100341.94;84730;1326;22762;-73
2022/06/23 00:55:51;;;;;;;;;;;;;;;12.29;79.69;100339.98;84769;1325;22589;-72
2022/06/23 00:57:57;;;;;;;;;;;;;;;12.31;79.85;100340.08;84719;1326;25287;-72
2022/06/23 01:00:06;;;;;;;;;;;;;;;12.33;79.93;100337.14;84738;1326;24223;-72
2022/06/23 01:02:11;;;;;;;;;;;;;;;12.36;80.09;100336.67;84748;1325;22576;-72
2022/06/23 01:04:20;;;;;;;;;;;;;;;12.38;79.86;100337.11;84742;1325;22580;-72
2022/06/23 01:06:27;;;;;;;;;;;;;;;12.41;79.98;100337.48;84755;1325;23101;-72
2022/06/23 01:08:34;;;;;;;;;;;;;;;12.44;79.91;100336.48;84738;1324;22837;-72
2022/06/23 01:10:40;;;;;;;;;;;;;;;12.47;79.91;100337.06;84753;1326;22604;-72
2022/06/23 01:12:45;;;;;;;;;;;;;;;12.51;79.90;100336.16;84736;1329;23914;-71
2022/06/23 01:14:50;;;;;;;;;;;;;;;12.54;80.11;100333.39;84684;1327;22994;-72
2022/06/23 01:16:55;;;;;;;;;;;;;;;12.55;79.78;100333.68;84727;1326;22658;-72
2022/06/23 01:19:00;;;;;;;;;;;;;;;12.56;79.62;100332.98;84746;1326;23801;-72
2022/06/23 01:21:06;;;;;;;;;;;;;;;12.55;79.54;100334.21;84744;1326;23860;-73
2022/06/23 01:23:24;;;;;;;;;;;;;;;12.52;79.56;100337.52;84761;1326;23977;-72
2022/06/23 01:25:34;;;;;;;;;;;;;;;12.47;79.59;100340.58;84685;1326;22593;-72
2022/06/23 01:27:58;;;;;;;;;;;;;;;12.41;79.32;100343.83;84693;1328;22595;-72
2022/06/23 01:30:04;;;;;;;;;;;;;;;12.33;79.30;100346.25;84692;1330;25924;-71
2022/06/23 01:32:23;;;;;;;;;;;;;;;12.27;79.19;100350.94;84701;1327;25432;-72
2022/06/23 01:34:29;;;;;;;;;;;;;;;12.21;79.25;100353.46;84703;1327;22574;-73
2022/06/23 01:36:35;;;;;;;;;;;;;;;12.17;79.38;100353.84;84716;1326;22670;-73
2022/06/23 01:38:46;;;;;;;;;;;;;;;12.12;79.45;100353.52;84715;1330;22596;-72
2022/06/23 01:40:51;;;;;;;;;;;;;;;12.07;79.51;100355.52;84733;1326;22678;-73
2022/06/23 01:42:58;;;;;;;;;;;;;;;12.01;79.67;100352.06;84746;1326;23256;-72
2022/06/23 01:45:04;;;;;;;;;;;;;;;11.96;79.99;100350.04;84735;1326;25307;-72
2022/06/23 01:47:13;;;;;;;;;;;;;;;11.93;79.94;100352.82;84732;1330;22625;-71
2022/06/23 01:49:19;;;;;;;;;;;;;;;11.91;80.13;100354.98;84731;1325;22574;-74
2022/06/23 01:51:24;;;;;;;;;;;;;;;11.91;80.21;100353.39;84704;1327;24311;-73
2022/06/23 01:53:29;;;;;;;;;;;;;;;11.93;80.56;100349.15;84732;1327;22763;-73
2022/06/23 01:55:50;;;;;;;;;;;;;;;11.93;80.42;100353.68;84752;1323;22573;-72
2022/06/23 01:57:57;;;;;;;;;;;;;;;11.93;80.51;100353.86;84723;1330;22608;-72
2022/06/23 02:00:08;;;;;;;;;;;;;;;11.93;80.58;100351.23;84756;1329;23136;-73
2022/06/23 02:02:21;;;;;;;;;;;;;;;11.93;80.50;100351.77;84705;1327;22603;-72
2022/06/23 02:04:27;;;;;;;;;;;;;;;11.94;80.70;100352.05;84718;1326;22725;-73
2022/06/23 02:06:34;;;;;;;;;;;;;;;11.98;80.79;100351.20;84709;1326;22914;-73
2022/06/23 02:08:41;;;;;;;;;;;;;;;12.01;80.80;100352.45;84711;1326;24217;-72
2022/06/23 02:10:51;;;;;;;;;;;;;;;12.02;80.82;100353.42;84720;1329;25427;-72
2022/06/23 02:12:57;;;;;;;;;;;;;;;12.05;80.86;100353.13;84721;1324;24287;-73
2022/06/23 02:15:06;;;;;;;;;;;;;;;12.07;80.68;100351.66;84686;1322;22590;-72
2022/06/23 02:17:17;;;;;;;;;;;;;;;12.07;80.86;100356.03;84711;1327;24346;-72
2022/06/23 02:19:24;;;;;;;;;;;;;;;12.04;80.79;100351.44;84712;1324;22993;-72
2022/06/23 02:21:31;;;;;;;;;;;;;;;12.01;80.66;100358.23;84720;1330;25978;-73
2022/06/23 02:23:38;;;;;;;;;;;;;;;11.96;80.69;100360.51;84741;1326;22571;-71
2022/06/23 02:25:45;;;;;;;;;;;;;;;11.93;80.81;100358.59;84728;1329;25278;-72
2022/06/23 02:27:51;;;;;;;;;;;;;;;11.88;80.72;100358.93;84690;1330;22798;-72
2022/06/23 02:29:55;;;;;;;;;;;;;;;11.85;80.90;100357.67;84771;1326;22571;-72
2022/06/23 02:32:02;;;;;;;;;;;;;;;11.82;80.89;100363.40;84772;1326;22916;-73
2022/06/23 02:34:11;;;;;;;;;;;;;;;11.80;80.86;100361.52;84753;1327;22771;-72
2022/06/23 02:36:22;;;;;;;;;;;;;;;11.81;81.16;100363.06;84780;1325;22859;-73
2022/06/23 02:38:26;;;;;;;;;;;;;;;11.84;81.52;100362.26;84758;1327;22955;-72
2022/06/23 02:40:32;;;;;;;;;;;;;;;11.85;81.50;100363.77;84754;1326;22616;-72
2022/06/23 02:42:37;;;;;;;;;;;;;;;11.88;81.65;100369.41;84780;1326;22603;-72
2022/06/23 02:45:00;;;;;;;;;;;;;;;11.92;82.01;100370.51;84746;1327;22679;-72
2022/06/23 02:47:11;;;;;;;;;;;;;;;11.97;82.08;100373.05;84743;1326;22721;-73
2022/06/23 02:49:29;;;;;;;;;;;;;;;11.99;81.93;100374.01;84794;1325;22599;-72
2022/06/23 02:51:43;;;;;;;;;;;;;;;12.01;82.20;100376.73;84785;1325;22586;-73
2022/06/23 02:54:14;;;;;;;;;;;;;;;12.05;82.41;100377.10;84765;1327;23974;-72
2022/06/23 02:56:45;;;;;;;;;;;;;;;12.10;82.32;100381.41;84764;1326;22825;-72
2022/06/23 02:58:50;;;;;;;;;;;;;;;12.15;82.39;100383.64;84818;1327;22580;-72
2022/06/23 03:00:57;;;;;;;;;;;;;;;12.20;82.42;100382.71;84800;1322;22625;-71
2022/06/23 03:03:05;;;;;;;;;;;;;;;12.24;82.34;100379.56;84791;1326;22580;-71
2022/06/23 03:05:14;;;;;;;;;;;;;;;12.27;82.49;100379.09;84807;1326;22571;-71
2022/06/23 03:07:21;;;;;;;;;;;;;;;12.31;82.28;100384.50;84805;1329;22571;-72
2022/06/23 03:09:28;;;;;;;;;;;;;;;12.35;82.35;100385.69;84785;1326;25942;-72
2022/06/23 03:11:54;;;;;;;;;;;;;;;12.45;82.52;100386.69;84805;1326;22595;-73
2022/06/23 03:13:57;;;;;;;;;;;;;;;12.53;82.44;100389.09;84771;1326;23782;-73
2022/06/23 03:16:05;;;;;;;;;;;;;;;12.60;82.37;100390.35;84694;1330;24192;-72
2022/06/23 03:18:10;;;;;;;;;;;;;;;12.67;82.19;100391.42;84769;1326;22647;-73
2022/06/23 03:20:19;;;;;;;;;;;;;;;12.73;82.16;100392.90;84789;1325;22600;-72
2022/06/23 03:22:25;;;;;;;;;;;;;;;12.77;82.29;100397.42;84785;1327;23848;-72
2022/06/23 03:24:30;;;;;;;;;;;;;;;12.83;82.22;100397.88;84731;1327;22586;-73
2022/06/23 03:26:37;;;;;;;;;;;;;;;12.91;82.26;100400.45;84756;1326;22861;-73
2022/06/23 03:28:46;;;;;;;;;;;;;;;13.03;82.57;100402.17;84790;1326;22673;-72
2022/06/23 03:30:52;;;;;;;;;;;;;;;13.24;82.62;100402.02;84736;1329;22760;-73
2022/06/23 03:32:57;;;;;;;;;;;;;;;13.73;82.87;100398.39;84721;1326;22598;-72
2022/06/23 03:35:03;;;;;;;;;;;;;;;14.48;83.04;100399.93;84728;1326;22608;-73
2022/06/23 03:37:08;;;;;;;;;;;;;;;15.32;82.36;100400.20;84730;1324;22747;-73
2022/06/23 03:41:45;;;;;;;;;;;;;;;17.13;79.50;100395.71;84738;1330;25277;-72
2022/06/23 03:43:51;;;;;;;;;;;;;;;18.00;77.87;100390.61;84734;1326;22579;-72
2022/06/23 03:45:56;;;;;;;;;;;;;;;18.78;75.38;100395.59;84729;1329;24289;-73
2022/06/23 03:48:02;;;;;;;;;;;;;;;19.48;72.92;100396.02;84754;1326;22782;-72
2022/06/23 03:50:13;;;;;;;;;;;;;;;20.11;70.97;100393.34;84724;1326;22770;-72
2022/06/23 03:52:21;;;;;;;;;;;;;;;20.70;69.16;100396.00;84782;1324;25418;-73
2022/06/23 03:54:27;;;;;;;;;;;;;;;21.33;67.43;100399.04;84745;1326;22567;-73
2022/06/23 03:56:35;;;;;;;;;;;;;;;21.89;65.30;100399.34;84727;1326;22675;-73
2022/06/23 03:58:42;;;;;;;;;;;;;;;22.46;63.03;100401.73;84546;1326;250845;-73
2022/06/23 04:00:55;;;;;;;;;;;;;;;22.91;61.35;100401.84;84706;1326;22553;-73
2022/06/23 04:03:20;;;;;;;;;;;;;;;23.36;59.26;100400.29;84710;1326;25259;-72
2022/06/23 04:05:25;;;;;;;;;;;;;;;23.81;57.28;100403.45;84721;1327;22595;-72
2022/06/23 04:07:35;;;;;;;;;;;;;;;24.15;55.96;100398.89;84727;1326;23888;-72
2022/06/23 04:09:38;;;;;;;;;;;;;;;24.45;54.83;100403.82;84732;1326;22761;-73
2022/06/23 04:11:46;;;;;;;;;;;;;;;24.70;53.63;100406.31;84720;1326;25422;-72
2022/06/23 04:13:49;;;;;;;;;;;;;;;25.10;52.90;100412.85;84718;1330;24355;-72
2022/06/23 04:15:53;;;;;;;;;;;;;;;25.63;51.75;100411.94;84747;1326;22585;-73
2022/06/23 04:18:01;;;;;;;;;;;;;;;26.25;50.35;100416.55;84717;1325;22602;-73
2022/06/23 04:20:10;;;;;;;;;;;;;;;26.78;48.85;100417.11;84739;1326;22682;-72
2022/06/23 04:22:18;;;;;;;;;;;;;;;27.22;47.41;100421.20;84715;1326;22556;-72
2022/06/23 04:24:22;;;;;;;;;;;;;;;27.61;46.59;100423.56;84745;1326;24223;-73
2022/06/23 04:26:30;;;;;;;;;;;;;;;28.06;44.76;100425.62;84733;1326;22763;-72
2022/06/23 04:28:34;;;;;;;;;;;;;;;28.59;43.39;100428.64;84723;1326;23982;-72
2022/06/23 04:30:40;;;;;;;;;;;;;;;29.04;41.83;100429.62;84714;1326;22559;-73
2022/06/23 04:32:43;;;;;;;;;;;;;;;29.29;41.17;100430.06;84729;1325;22547;-73
2022/06/23 04:34:49;;;;;;;;;;;;;;;29.49;39.97;100432.31;84709;1326;22596;-73
2022/06/23 04:36:53;;;;;;;;;;;;;;;29.73;39.48;100432.02;84742;1326;23786;-73
2022/06/23 04:38:57;;;;;;;;;;;;;;;29.96;38.82;100435.80;84710;1326;22586;-73
2022/06/23 04:41:04;;;;;;;;;;;;;;;30.14;38.51;100440.70;84744;1326;23922;-73
2022/06/23 04:43:14;;;;;;;;;;;;;;;30.07;38.26;100440.13;84704;1326;22588;-73
2022/06/23 04:45:33;;;;;;;;;;;;;;;29.56;38.40;100448.50;84724;1327;22576;-73
2022/06/23 04:47:36;;;;;;;;;;;;;;;28.97;38.95;100450.96;84715;1327;22839;-73
2022/06/23 04:49:42;;;;;;;;;;;;;;;28.39;39.39;100454.73;84718;1326;22638;-73
2022/06/23 04:51:49;;;;;;;;;;;;;;;27.77;39.80;100457.09;84773;1326;24251;-73
2022/06/23 04:54:05;;;;;;;;;;;;;;;27.40;41.01;100458.14;84712;1326;25402;-72
2022/06/23 04:56:18;;;;;;;;;;;;;;;27.37;41.57;100462.03;84741;1326;23850;-72
2022/06/23 04:58:22;;;;;;;;;;;;;;;27.32;41.52;100465.95;84725;1327;22606;-72
2022/06/23 05:00:27;;;;;;;;;;;;;;;27.16;41.66;100465.71;84729;1330;22514;-72
2022/06/23 05:02:31;;;;;;;;;;;;;;;27.02;41.83;100468.45;84729;1326;22576;-72
2022/06/23 05:04:38;;;;;;;;;;;;;;;26.92;42.21;100469.80;84745;1326;22820;-73
2022/06/23 05:06:43;;;;;;;;;;;;;;;27.10;42.68;100476.41;84705;1326;25256;-73
2022/06/23 05:08:47;;;;;;;;;;;;;;;27.29;42.36;100482.40;84726;1324;24355;-72
2022/06/23 05:10:54;;;;;;;;;;;;;;;27.41;42.12;100484.76;84749;1326;22600;-72
2022/06/23 05:12:59;;;;;;;;;;;;;;;27.55;42.20;100484.85;84717;1326;25429;-72
2022/06/23 05:15:10;;;;;;;;;;;;;;;27.73;41.80;100490.40;84713;1327;24036;-72
2022/06/23 05:17:16;;;;;;;;;;;;;;;27.90;41.59;100492.11;84732;1323;22870;-72
2022/06/23 05:19:23;;;;;;;;;;;;;;;28.12;40.82;100492.74;84731;1326;22652;-72
2022/06/23 05:21:28;;;;;;;;;;;;;;;28.37;40.34;100495.80;84721;1327;22935;-72
2022/06/23 05:23:41;;;;;;;;;;;;;;;28.56;39.85;100499.56;84719;1326;23860;-72
2022/06/23 05:25:46;;;;;;;;;;;;;;;29.02;39.73;100499.44;84753;1326;22580;-72
2022/06/23 05:27:49;;;;;;;;;;;;;;;29.48;38.60;100495.42;84751;1325;22578;-75
2022/06/23 05:29:56;;;;;;;;;;;;;;;29.75;37.92;100498.39;84720;1326;22681;-75
2022/06/23 05:32:01;;;;;;;;;;;;;;;29.92;37.85;100498.86;84742;1326;22715;-75
2022/06/23 05:34:07;;;;;;;;;;;;;;;30.13;37.21;100498.52;84742;1326;22644;-74
2022/06/23 05:36:20;;;;;;;;;;;;;;;30.33;36.91;100499.90;84730;1324;22599;-74
2022/06/23 05:38:30;;;;;;;;;;;;;;;30.62;36.25;100501.85;84726;1326;25420;-75
2022/06/23 05:40:35;;;;;;;;;;;;;;;30.83;35.40;100500.21;84728;1326;24211;-75
2022/06/23 05:42:39;;;;;;;;;;;;;;;31.02;35.35;100501.38;84773;1326;22600;-75
2022/06/23 05:44:49;;;;;;;;;;;;;;;31.37;34.78;100504.75;84740;1329;22625;-72
2022/06/23 05:46:52;;;;;;;;;;;;;;;31.64;34.28;100502.71;84740;1326;23925;-72
2022/06/23 05:48:58;;;;;;;;;;;;;;;31.78;33.41;100505.53;84714;1326;22577;-72
2022/06/23 05:51:04;;;;;;;;;;;;;;;32.04;33.49;100501.76;84757;1326;22611;-72
2022/06/23 05:53:10;;;;;;;;;;;;;;;32.21;32.68;100497.64;84718;1323;22654;-72
2022/06/23 05:55:16;;;;;;;;;;;;;;;32.62;32.42;100499.21;84720;1326;25431;-72
2022/06/23 05:57:21;;;;;;;;;;;;;;;33.11;31.69;100497.41;84778;1326;22636;-72
2022/06/23 05:59:26;;;;;;;;;;;;;;;33.36;31.52;100499.84;84762;1324;24327;-74
2022/06/23 06:01:36;;;;;;;;;;;;;;;33.66;30.90;100506.27;84756;1326;22589;-73
2022/06/23 06:03:42;;;;;;;;;;;;;;;34.01;29.68;100506.39;84733;1325;22572;-73
2022/06/23 06:05:47;;;;;;;;;;;;;;;34.15;30.27;100509.94;84723;1326;23976;-73
2022/06/23 06:07:50;;;;;;;;;;;;;;;34.40;29.95;100509.30;84718;1326;22630;-72
2022/06/23 06:09:54;;;;;;;;;;;;;;;34.76;29.43;100514.48;84728;1324;22567;-72
2022/06/23 06:11:58;;;;;;;;;;;;;;;35.10;28.67;100513.44;84742;1326;22578;-72
2022/06/23 06:14:02;;;;;;;;;;;;;;;35.24;27.92;100515.26;84713;1326;24262;-72
2022/06/23 06:16:06;;;;;;;;;;;;;;;35.15;27.29;100516.02;84723;1326;25426;-72
2022/06/23 06:18:12;;;;;;;;;;;;;;;35.07;27.71;100519.11;84716;1327;22604;-72
2022/06/23 06:20:15;;;;;;;;;;;;;;;35.20;27.72;100518.80;84722;1326;22653;-73
2022/06/23 06:22:26;;;;;;;;;;;;;;;35.49;27.59;100523.44;84717;1326;22751;-73
2022/06/23 06:24:32;;;;;;;;;;;;;;;35.91;27.71;100525.40;84726;1326;25278;-73
2022/06/23 06:26:38;;;;;;;;;;;;;;;36.13;27.30;100530.33;84724;1326;22578;-73
2022/06/23 06:28:41;;;;;;;;;;;;;;;36.36;26.66;100530.34;84720;1327;22577;-73
2022/06/23 06:30:47;;;;;;;;;;;;;;;36.46;26.63;100535.03;84752;1326;23774;-73
2022/06/23 06:32:50;;;;;;;;;;;;;;;36.34;26.27;100532.95;84754;1326;25964;-74
2022/06/23 06:34:55;;;;;;;;;;;;;;;36.36;25.73;100536.29;84768;1326;22724;-75
2022/06/23 06:36:58;;;;;;;;;;;;;;;36.51;26.09;100540.97;84743;1329;22571;-73
2022/06/23 06:39:05;;;;;;;;;;;;;;;36.60;25.27;100541.92;84729;1330;23857;-76
2022/06/23 06:41:09;;;;;;;;;;;;;;;36.66;25.45;100539.30;84724;1326;22887;-72
2022/06/23 06:43:13;;;;;;;;;;;;;;;36.82;24.80;100543.95;84725;1325;24301;-73
2022/06/23 06:45:17;;;;;;;;;;;;;;;36.92;24.89;100544.55;84768;1323;22567;-73
2022/06/23 06:47:22;;;;;;;;;;;;;;;36.90;24.30;100549.30;84737;1325;22749;-73
2022/06/23 06:49:28;;;;;;;;;;;;;;;36.91;25.11;100547.03;84714;1326;24348;-73
2022/06/23 06:51:32;;;;;;;;;;;;;;;37.01;24.73;100549.67;84739;1326;22576;-73
2022/06/23 06:53:38;;;;;;;;;;;;;;;37.23;23.63;100552.10;84741;1326;24476;-73
2022/06/23 06:55:43;;;;;;;;;;;;;;;37.31;23.20;100556.00;84730;1326;23963;-72
2022/06/23 06:57:49;;;;;;;;;;;;;;;37.29;23.57;100553.65;84713;1327;25423;-72
2022/06/23 06:59:56;;;;;;;;;;;;;;;37.25;24.15;100554.77;84758;1326;22809;-72
2022/06/23 07:02:01;;;;;;;;;;;;;;;37.37;23.66;100558.21;84738;1326;22577;-72
2022/06/23 07:04:05;;;;;;;;;;;;;;;37.40;23.03;100554.16;84765;1326;22751;-72
2022/06/23 07:06:12;;;;;;;;;;;;;;;37.34;23.02;100560.88;84707;1326;22590;-72
2022/06/23 07:08:18;;;;;;;;;;;;;;;37.37;23.03;100554.98;84741;1330;24031;-72
2022/06/23 07:10:24;;;;;;;;;;;;;;;37.54;23.86;100551.27;84728;1326;22617;-72
2022/06/23 07:12:28;;;;;;;;;;;;;;;37.87;22.88;100555.77;84734;1326;25413;-72
2022/06/23 07:14:42;;;;;;;;;;;;;;;38.01;21.96;100560.27;84704;1326;22589;-72
2022/06/23 07:16:48;;;;;;;;;;;;;;;37.83;21.43;100562.71;84730;1324;22585;-73
2022/06/23 07:18:56;;;;;;;;;;;;;;;37.61;21.75;100563.58;84728;1326;23941;-73
2022/06/23 07:21:03;;;;;;;;;;;;;;;37.81;22.19;100564.67;84730;1326;22596;-73
2022/06/23 07:23:11;;;;;;;;;;;;;;;37.85;21.65;100564.21;84765;1326;22674;-73
2022/06/23 07:25:17;;;;;;;;;;;;;;;37.96;22.30;100568.52;84776;1323;22625;-73
2022/06/23 07:27:24;;;;;;;;;;;;;;;38.25;22.24;100563.64;84741;1329;22581;-73
2022/06/23 07:29:33;;;;;;;;;;;;;;;38.48;21.54;100566.34;84752;1326;22525;-73
2022/06/23 07:31:43;;;;;;;;;;;;;;;38.57;20.23;100562.39;84731;1329;23879;-73
2022/06/23 07:33:48;;;;;;;;;;;;;;;38.65;20.33;100564.05;84758;1326;25939;-73
2022/06/23 07:35:54;;;;;;;;;;;;;;;38.72;20.17;100565.14;84705;1326;22595;-73
2022/06/23 07:38:01;;;;;;;;;;;;;;;38.55;20.20;100566.13;84725;1330;24245;-72
2022/06/23 07:40:06;;;;;;;;;;;;;;;38.58;21.51;100563.61;84721;1326;22662;-72
2022/06/23 07:42:14;;;;;;;;;;;;;;;38.88;21.13;100570.23;84729;1326;24314;-72
2022/06/23 07:44:20;;;;;;;;;;;;;;;39.01;20.32;100567.77;84754;1326;22761;-72
2022/06/23 07:46:23;;;;;;;;;;;;;;;39.18;20.87;100565.83;84713;1330;22780;-72
2022/06/23 07:48:27;;;;;;;;;;;;;;;39.44;19.92;100571.31;84731;1326;22792;-72
2022/06/23 07:50:31;;;;;;;;;;;;;;;39.63;19.79;100575.13;84776;1326;22765;-72
2022/06/23 07:52:34;;;;;;;;;;;;;;;39.61;19.44;100575.20;84730;1326;23819;-72
2022/06/23 07:54:37;;;;;;;;;;;;;;;39.48;19.16;100580.26;84730;1326;22592;-72
2022/06/23 07:56:40;;;;;;;;;;;;;;;39.29;19.00;100579.78;84724;1328;22540;-73
2022/06/23 07:58:44;;;;;;;;;;;;;;;39.23;19.56;100577.56;84689;1331;22593;-74
2022/06/23 08:00:47;;;;;;;;;;;;;;;39.15;19.31;100575.90;84734;1326;22696;-75
2022/06/23 08:02:51;;;;;;;;;;;;;;;39.10;19.40;100578.70;84730;1326;22611;-73
2022/06/23 08:05:00;;;;;;;;;;;;;;;39.01;19.69;100578.13;84722;1326;25249;-73
2022/06/23 08:07:05;;;;;;;;;;;;;;;38.46;20.05;100574.64;84732;1326;25251;-73
2022/06/23 08:09:19;;;;;;;;;;;;;;;37.49;20.76;100573.62;84738;1326;22593;-75
2022/06/23 08:13:59;;;;;;;;;;;;;;;36.96;21.59;100571.29;84730;1326;22885;-75
2022/06/23 08:18:33;;;;;;;;;;;;;;;37.43;21.79;100566.38;84711;1329;25017;-73
2022/06/23 08:20:39;;;;;;;;;;;;;;;36.99;21.34;100567.66;84719;1327;25433;-74
2022/06/23 08:22:42;;;;;;;;;;;;;;;36.01;21.81;100569.55;84714;1326;25953;-73
2022/06/23 08:24:48;;;;;;;;;;;;;;;35.66;22.85;100568.63;84787;1326;22537;-73
2022/06/23 08:26:54;;;;;;;;;;;;;;;35.81;23.73;100564.89;84745;1330;22547;-73
2022/06/23 08:29:00;;;;;;;;;;;;;;;35.62;23.59;100567.39;84733;1327;25277;-73
2022/06/23 08:31:03;;;;;;;;;;;;;;;35.94;23.07;100564.98;84721;1327;22587;-73
2022/06/23 08:33:07;;;;;;;;;;;;;;;36.29;22.64;100565.36;84726;1326;22585;-73
2022/06/23 08:35:12;;;;;;;;;;;;;;;35.83;22.10;100568.45;84727;1327;22566;-73
2022/06/23 08:37:18;;;;;;;;;;;;;;;35.01;22.45;100572.33;84721;1326;24338;-73
2022/06/23 08:39:24;;;;;;;;;;;;;;;34.57;23.32;100572.39;84806;1327;24239;-73
2022/06/23 08:41:30;;;;;;;;;;;;;;;33.89;23.34;100575.44;84721;1326;22599;-73
2022/06/23 08:43:37;;;;;;;;;;;;;;;33.28;24.69;100575.37;84734;1326;22579;-73
2022/06/23 08:45:43;;;;;;;;;;;;;;;33.56;24.92;100570.41;84738;1326;22727;-73
2022/06/23 08:47:50;;;;;;;;;;;;;;;34.27;24.67;100579.14;84737;1330;22571;-73
2022/06/23 08:49:57;;;;;;;;;;;;;;;34.95;24.25;100575.73;84744;1326;22527;-73
2022/06/23 08:52:03;;;;;;;;;;;;;;;35.51;23.53;100577.98;84740;1326;22763;-73
2022/06/23 08:54:10;;;;;;;;;;;;;;;35.85;23.24;100579.45;84732;1326;22587;-73
2022/06/23 08:56:16;;;;;;;;;;;;;;;36.25;23.52;100574.38;84734;1326;23969;-73
2022/06/23 08:58:22;;;;;;;;;;;;;;;36.78;22.40;100569.45;84768;1326;22583;-73
2022/06/23 09:00:30;;;;;;;;;;;;;;;37.04;21.97;100568.13;84741;1329;25241;-73
2022/06/23 09:02:37;;;;;;;;;;;;;;;37.36;22.51;100572.91;84728;1326;25252;-73
2022/06/23 09:04:47;;;;;;;;;;;;;;;37.67;20.91;100570.84;84749;1326;25293;-73
2022/06/23 09:06:52;;;;;;;;;;;;;;;37.79;20.66;100573.98;84727;1326;22590;-73
2022/06/23 09:09:00;;;;;;;;;;;;;;;37.97;21.73;100571.81;84725;1326;22566;-74
2022/06/23 09:11:09;;;;;;;;;;;;;;;37.86;19.69;100574.40;84737;1327;22582;-79
2022/06/23 09:13:17;;;;;;;;;;;;;;;37.16;20.22;100576.69;84769;1326;22595;-73
2022/06/23 09:15:47;;;;;;;;;;;;;;;36.84;20.83;100578.92;84720;1326;25427;-73
2022/06/23 09:18:02;;;;;;;;;;;;;;;36.46;20.88;100577.44;84704;1327;22877;-73
2022/06/23 09:20:16;;;;;;;;;;;;;;;36.09;21.49;100576.21;84733;1327;22618;-73
2022/06/23 09:22:36;;;;;;;;;;;;;;;35.89;22.13;100576.79;84735;1328;24350;-73
2022/06/23 09:24:57;;;;;;;;;;;;;;;35.78;22.39;100574.73;84722;1330;22537;-72
2022/06/23 09:27:05;;;;;;;;;;;;;;;35.76;21.71;100579.70;84713;1326;22611;-72
2022/06/23 09:29:17;;;;;;;;;;;;;;;35.46;21.92;100580.98;84721;1326;22973;-72
2022/06/23 09:31:21;;;;;;;;;;;;;;;34.97;22.27;100586.10;84728;1326;22578;-72
2022/06/23 09:33:32;;;;;;;;;;;;;;;34.53;22.88;100591.33;84722;1326;25423;-72
2022/06/23 09:35:49;;;;;;;;;;;;;;;34.11;23.28;100596.18;84720;1330;22577;-72
2022/06/23 09:38:09;;;;;;;;;;;;;;;33.79;23.90;100596.54;84702;1327;22587;-72
2022/06/23 09:40:33;;;;;;;;;;;;;;;33.47;23.99;100594.55;84745;1326;22861;-72
2022/06/23 09:43:12;;;;;;;;;;;;;;;33.32;25.04;100596.71;84745;1330;22950;-72
2022/06/23 09:45:36;;;;;;;;;;;;;;;33.39;24.82;100597.91;84722;1326;25304;-72
2022/06/23 09:47:58;;;;;;;;;;;;;;;33.33;24.85;100602.68;84694;1327;24235;-72
2022/06/23 09:50:18;;;;;;;;;;;;;;;33.23;24.51;100597.92;84732;1324;22589;-72
2022/06/23 09:52:43;;;;;;;;;;;;;;;33.33;25.94;100590.92;84713;1326;25431;-72
2022/06/23 09:55:08;;;;;;;;;;;;;;;33.33;24.36;100592.46;84715;1326;25412;-72
2022/06/23 09:57:24;;;;;;;;;;;;;;;32.90;24.36;100599.27;84725;1326;23977;-72
2022/06/23 09:59:56;;;;;;;;;;;;;;;32.44;25.03;100597.77;84764;1328;22770;-72
2022/06/23 10:02:04;;;;;;;;;;;;;;;32.33;25.72;100591.39;84717;1326;22534;-72
2022/06/23 10:04:18;;;;;;;;;;;;;;;32.45;26.46;100591.90;84731;1325;22567;-72
2022/06/23 10:06:38;;;;;;;;;;;;;;;32.42;26.38;100595.50;84714;1327;25511;-72
2022/06/23 10:08:47;;;;;;;;;;;;;;;32.07;26.31;100594.28;84711;1326;22662;-72
2022/06/23 10:11:10;;;;;;;;;;;;;;;31.54;26.13;100595.52;84724;1326;22636;-72
2022/06/23 10:13:26;;;;;;;;;;;;;;;30.82;26.82;100594.05;84753;1327;22582;-72
2022/06/23 10:15:39;;;;;;;;;;;;;;;30.32;27.61;100594.73;84731;1326;22755;-72
2022/06/23 10:17:54;;;;;;;;;;;;;;;30.19;28.18;100595.77;84719;1327;23941;-72
2022/06/23 10:20:10;;;;;;;;;;;;;;;30.36;28.04;100596.23;84741;1330;22665;-72
2022/06/23 10:22:41;;;;;;;;;;;;;;;30.47;27.89;100591.86;84711;1327;25249;-72
2022/06/23 10:24:55;;;;;;;;;;;;;;;30.64;27.38;100587.92;84710;1326;22569;-72
2022/06/23 10:27:10;;;;;;;;;;;;;;;30.73;27.02;100585.02;84722;1329;24279;-72
2022/06/23 10:29:22;;;;;;;;;;;;;;;30.87;27.33;100588.44;84716;1326;22597;-72
2022/06/23 10:31:32;;;;;;;;;;;;;;;30.95;27.12;100588.51;84728;1327;25227;-72
2022/06/23 10:33:55;;;;;;;;;;;;;;;30.86;27.60;100595.78;84723;1330;22763;-72
2022/06/23 10:36:27;;;;;;;;;;;;;;;30.53;27.12;100600.17;84626;1326;23899;-72
2022/06/23 10:38:42;;;;;;;;;;;;;;;29.98;27.50;100601.63;84680;1330;22583;-72
2022/06/23 10:40:57;;;;;;;;;;;;;;;29.51;27.87;100600.39;84719;1329;22788;-72
2022/06/23 10:43:07;;;;;;;;;;;;;;;29.38;28.58;100595.41;84712;1326;22814;-72
2022/06/23 10:45:26;;;;;;;;;;;;;;;29.36;29.40;100598.02;84705;1326;22925;-72
2022/06/23 10:47:54;;;;;;;;;;;;;;;29.46;29.26;100592.27;84713;1327;22650;-71
2022/06/23 10:50:12;;;;;;;;;;;;;;;29.69;29.55;100593.34;84788;1326;25409;-71
2022/06/23 10:52:26;;;;;;;;;;;;;;;29.91;28.95;100594.21;84741;1330;25994;-71
2022/06/23 10:54:44;;;;;;;;;;;;;;;29.83;28.01;100593.59;84764;1330;22616;-71
2022/06/23 10:57:05;;;;;;;;;;;;;;;29.45;28.27;100595.14;84712;1329;22584;-71
2022/06/23 10:59:16;;;;;;;;;;;;;;;29.04;28.56;100602.45;84725;1330;22583;-71
2022/06/23 11:01:38;;;;;;;;;;;;;;;28.69;29.11;100605.29;84794;1327;22990;-71
2022/06/23 11:03:59;;;;;;;;;;;;;;;28.36;29.36;100600.98;84798;1327;22521;-71
2022/06/23 11:06:14;;;;;;;;;;;;;;;28.12;29.72;100598.40;84722;1327;22772;-71
2022/06/23 11:08:28;;;;;;;;;;;;;;;28.14;29.76;100596.95;84710;1326;22606;-71